sensor_id;sensor_type;location;lat;lon;timestamp;P1;durP1;ratioP1;P2;durP2;ratioP2
26977;SDS011;56314;48.088;11.642;2022-07-31T00:01:48;5.38;;;4.38;;
26977;SDS011;56314;48.088;11.642;2022-07-31T00:04:15;5.03;;;4.50;;
26977;SDS011;56314;48.088;11.642;2022-07-31T00:06:40;5.25;;;4.25;;
26977;SDS011;56314;48.088;11.642;2022-07-31T00:09:07;4.97;;;4.57;;
26977;SDS011;56314;48.088;11.642;2022-07-31T00:11:33;5.93;;;4.68;;
26977;SDS011;56314;48.088;11.642;2022-07-31T00:13:58;4.82;;;4.43;;
26977;SDS011;56314;48.088;11.642;2022-07-31T00:16:23;4.53;;;4.13;;
26977;SDS011;56314;48.088;11.642;2022-07-31T00:18:49;5.60;;;4.55;;
26977;SDS011;56314;48.088;11.642;2022-07-31T00:21:15;5.78;;;4.90;;
26977;SDS011;56314;48.088;11.642;2022-07-31T00:23:40;4.78;;;4.32;;
26977;SDS011;56314;48.088;11.642;2022-07-31T00:26:05;5.97;;;4.45;;
26977;SDS011;56314;48.088;11.642;2022-07-31T00:28:31;5.80;;;4.68;;
26977;SDS011;56314;48.088;11.642;2022-07-31T00:30:57;7.22;;;4.75;;
26977;SDS011;56314;48.088;11.642;2022-07-31T00:33:22;5.20;;;4.70;;
26977;SDS011;56314;48.088;11.642;2022-07-31T00:35:48;5.32;;;4.82;;
26977;SDS011;56314;48.088;11.642;2022-07-31T00:38:13;8.30;;;4.97;;
26977;SDS011;56314;48.088;11.642;2022-07-31T00:40:48;6.10;;;4.13;;
26977;SDS011;56314;48.088;11.642;2022-07-31T00:43:14;4.82;;;4.40;;
26977;SDS011;56314;48.088;11.642;2022-07-31T00:45:40;5.65;;;5.18;;
26977;SDS011;56314;48.088;11.642;2022-07-31T00:48:06;6.53;;;5.10;;
26977;SDS011;56314;48.088;11.642;2022-07-31T00:50:31;5.93;;;4.78;;
26977;SDS011;56314;48.088;11.642;2022-07-31T00:52:57;6.15;;;4.88;;
26977;SDS011;56314;48.088;11.642;2022-07-31T00:55:22;8.30;;;4.47;;
26977;SDS011;56314;48.088;11.642;2022-07-31T00:57:48;6.60;;;4.68;;
26977;SDS011;56314;48.088;11.642;2022-07-31T01:00:13;5.07;;;4.40;;
26977;SDS011;56314;48.088;11.642;2022-07-31T01:02:39;7.35;;;4.80;;
26977;SDS011;56314;48.088;11.642;2022-07-31T01:05:05;4.70;;;4.30;;
26977;SDS011;56314;48.088;11.642;2022-07-31T01:07:30;6.20;;;4.47;;
26977;SDS011;56314;48.088;11.642;2022-07-31T01:09:56;5.03;;;4.53;;
26977;SDS011;56314;48.088;11.642;2022-07-31T01:12:36;4.80;;;4.25;;
26977;SDS011;56314;48.088;11.642;2022-07-31T01:15:07;6.53;;;4.60;;
26977;SDS011;56314;48.088;11.642;2022-07-31T01:17:35;5.65;;;4.53;;
26977;SDS011;56314;48.088;11.642;2022-07-31T01:20:04;7.55;;;4.57;;
26977;SDS011;56314;48.088;11.642;2022-07-31T01:22:44;6.45;;;4.60;;
26977;SDS011;56314;48.088;11.642;2022-07-31T01:25:29;5.55;;;4.43;;
26977;SDS011;56314;48.088;11.642;2022-07-31T01:33:33;6.93;;;4.65;;
26977;SDS011;56314;48.088;11.642;2022-07-31T01:36:07;5.68;;;4.28;;
26977;SDS011;56314;48.088;11.642;2022-07-31T01:38:37;4.88;;;4.38;;
26977;SDS011;56314;48.088;11.642;2022-07-31T01:41:06;7.05;;;4.53;;
26977;SDS011;56314;48.088;11.642;2022-07-31T01:43:36;5.05;;;4.53;;
26977;SDS011;56314;48.088;11.642;2022-07-31T01:46:04;5.82;;;4.38;;
26977;SDS011;56314;48.088;11.642;2022-07-31T01:48:33;5.05;;;4.10;;
26977;SDS011;56314;48.088;11.642;2022-07-31T01:51:00;6.20;;;5.28;;
26977;SDS011;56314;48.088;11.642;2022-07-31T01:53:27;6.60;;;4.35;;
26977;SDS011;56314;48.088;11.642;2022-07-31T01:55:55;4.88;;;4.20;;
26977;SDS011;56314;48.088;11.642;2022-07-31T01:58:22;4.55;;;4.15;;
26977;SDS011;56314;48.088;11.642;2022-07-31T02:00:50;4.55;;;4.15;;
26977;SDS011;56314;48.088;11.642;2022-07-31T02:03:18;4.78;;;4.38;;
26977;SDS011;56314;48.088;11.642;2022-07-31T02:05:44;5.90;;;4.75;;
26977;SDS011;56314;48.088;11.642;2022-07-31T02:08:11;6.03;;;4.53;;
26977;SDS011;56314;48.088;11.642;2022-07-31T02:10:41;5.57;;;4.20;;
26977;SDS011;56314;48.088;11.642;2022-07-31T02:13:08;5.25;;;4.30;;
26977;SDS011;56314;48.088;11.642;2022-07-31T02:15:35;6.13;;;4.28;;
26977;SDS011;56314;48.088;11.642;2022-07-31T02:18:01;4.70;;;4.30;;
26977;SDS011;56314;48.088;11.642;2022-07-31T02:20:28;5.97;;;4.65;;
26977;SDS011;56314;48.088;11.642;2022-07-31T02:22:55;4.82;;;4.10;;
26977;SDS011;56314;48.088;11.642;2022-07-31T02:25:21;7.38;;;4.32;;
26977;SDS011;56314;48.088;11.642;2022-07-31T02:27:47;4.43;;;3.58;;
26977;SDS011;56314;48.088;11.642;2022-07-31T02:30:14;4.15;;;3.75;;
26977;SDS011;56314;48.088;11.642;2022-07-31T02:32:41;5.40;;;4.32;;
26977;SDS011;56314;48.088;11.642;2022-07-31T02:35:10;4.50;;;4.10;;
26977;SDS011;56314;48.088;11.642;2022-07-31T02:37:37;5.07;;;4.25;;
26977;SDS011;56314;48.088;11.642;2022-07-31T02:40:04;6.53;;;5.03;;
26977;SDS011;56314;48.088;11.642;2022-07-31T02:42:32;4.30;;;3.90;;
26977;SDS011;56314;48.088;11.642;2022-07-31T02:44:59;9.27;;;3.92;;
26977;SDS011;56314;48.088;11.642;2022-07-31T02:47:25;5.30;;;4.32;;
26977;SDS011;56314;48.088;11.642;2022-07-31T02:49:52;7.43;;;4.22;;
26977;SDS011;56314;48.088;11.642;2022-07-31T02:52:19;6.10;;;4.10;;
26977;SDS011;56314;48.088;11.642;2022-07-31T02:54:45;7.28;;;4.32;;
26977;SDS011;56314;48.088;11.642;2022-07-31T02:57:11;7.97;;;4.68;;
26977;SDS011;56314;48.088;11.642;2022-07-31T02:59:37;8.10;;;4.07;;
26977;SDS011;56314;48.088;11.642;2022-07-31T03:02:03;4.63;;;4.00;;
26977;SDS011;56314;48.088;11.642;2022-07-31T03:04:29;4.90;;;4.40;;
26977;SDS011;56314;48.088;11.642;2022-07-31T03:06:54;5.72;;;3.85;;
26977;SDS011;56314;48.088;11.642;2022-07-31T03:09:20;4.80;;;4.40;;
26977;SDS011;56314;48.088;11.642;2022-07-31T03:11:45;5.75;;;4.20;;
26977;SDS011;56314;48.088;11.642;2022-07-31T03:14:11;6.03;;;4.10;;
26977;SDS011;56314;48.088;11.642;2022-07-31T03:16:37;4.70;;;3.78;;
26977;SDS011;56314;48.088;11.642;2022-07-31T03:19:04;5.85;;;4.38;;
26977;SDS011;56314;48.088;11.642;2022-07-31T03:21:32;5.13;;;4.10;;
26977;SDS011;56314;48.088;11.642;2022-07-31T03:23:58;4.63;;;4.22;;
26977;SDS011;56314;48.088;11.642;2022-07-31T03:26:25;6.65;;;4.40;;
26977;SDS011;56314;48.088;11.642;2022-07-31T03:28:52;6.38;;;4.63;;
26977;SDS011;56314;48.088;11.642;2022-07-31T03:31:17;5.10;;;4.32;;
26977;SDS011;56314;48.088;11.642;2022-07-31T03:33:43;6.97;;;4.25;;
26977;SDS011;56314;48.088;11.642;2022-07-31T03:36:09;4.35;;;3.92;;
26977;SDS011;56314;48.088;11.642;2022-07-31T03:38:34;7.78;;;4.15;;
26977;SDS011;56314;48.088;11.642;2022-07-31T03:41:00;4.75;;;4.15;;
26977;SDS011;56314;48.088;11.642;2022-07-31T03:43:25;4.63;;;4.18;;
26977;SDS011;56314;48.088;11.642;2022-07-31T03:45:52;6.18;;;4.20;;
26977;SDS011;56314;48.088;11.642;2022-07-31T03:48:18;9.68;;;4.82;;
26977;SDS011;56314;48.088;11.642;2022-07-31T03:50:44;6.13;;;4.43;;
26977;SDS011;56314;48.088;11.642;2022-07-31T03:53:10;5.10;;;4.03;;
26977;SDS011;56314;48.088;11.642;2022-07-31T03:55:36;4.80;;;4.35;;
26977;SDS011;56314;48.088;11.642;2022-07-31T03:58:03;7.50;;;4.68;;
26977;SDS011;56314;48.088;11.642;2022-07-31T04:00:30;8.70;;;4.25;;
26977;SDS011;56314;48.088;11.642;2022-07-31T04:02:56;6.85;;;4.18;;
26977;SDS011;56314;48.088;11.642;2022-07-31T04:05:22;7.38;;;4.82;;
26977;SDS011;56314;48.088;11.642;2022-07-31T04:07:48;7.65;;;4.60;;
26977;SDS011;56314;48.088;11.642;2022-07-31T04:10:14;6.68;;;4.45;;
26977;SDS011;56314;48.088;11.642;2022-07-31T04:12:40;7.10;;;3.88;;
26977;SDS011;56314;48.088;11.642;2022-07-31T04:15:05;4.63;;;4.07;;
26977;SDS011;56314;48.088;11.642;2022-07-31T04:17:31;4.60;;;4.15;;
26977;SDS011;56314;48.088;11.642;2022-07-31T04:19:57;6.15;;;4.53;;
26977;SDS011;56314;48.088;11.642;2022-07-31T04:22:22;4.90;;;4.07;;
26977;SDS011;56314;48.088;11.642;2022-07-31T04:24:47;7.55;;;4.70;;
26977;SDS011;56314;48.088;11.642;2022-07-31T04:27:16;4.93;;;4.25;;
26977;SDS011;56314;48.088;11.642;2022-07-31T04:29:43;5.40;;;4.43;;
26977;SDS011;56314;48.088;11.642;2022-07-31T04:32:09;4.10;;;3.67;;
26977;SDS011;56314;48.088;11.642;2022-07-31T04:34:34;6.28;;;4.28;;
26977;SDS011;56314;48.088;11.642;2022-07-31T04:37:00;7.20;;;4.50;;
26977;SDS011;56314;48.088;11.642;2022-07-31T04:39:26;6.35;;;4.18;;
26977;SDS011;56314;48.088;11.642;2022-07-31T04:41:51;4.50;;;4.10;;
26977;SDS011;56314;48.088;11.642;2022-07-31T04:44:16;7.25;;;4.30;;
26977;SDS011;56314;48.088;11.642;2022-07-31T04:46:42;7.32;;;4.00;;
26977;SDS011;56314;48.088;11.642;2022-07-31T04:49:08;3.92;;;3.63;;
26977;SDS011;56314;48.088;11.642;2022-07-31T04:51:36;5.25;;;3.72;;
26977;SDS011;56314;48.088;11.642;2022-07-31T04:54:02;4.65;;;4.00;;
26977;SDS011;56314;48.088;11.642;2022-07-31T04:56:28;5.55;;;3.90;;
26977;SDS011;56314;48.088;11.642;2022-07-31T04:59:10;6.95;;;3.92;;
26977;SDS011;56314;48.088;11.642;2022-07-31T05:01:37;5.55;;;3.40;;
26977;SDS011;56314;48.088;11.642;2022-07-31T05:04:03;5.35;;;3.58;;
26977;SDS011;56314;48.088;11.642;2022-07-31T05:06:36;4.72;;;3.00;;
26977;SDS011;56314;48.088;11.642;2022-07-31T05:09:05;5.60;;;3.28;;
26977;SDS011;56314;48.088;11.642;2022-07-31T05:11:32;7.35;;;3.13;;
26977;SDS011;56314;48.088;11.642;2022-07-31T05:14:00;3.15;;;2.83;;
26977;SDS011;56314;48.088;11.642;2022-07-31T05:16:26;4.40;;;3.28;;
26977;SDS011;56314;48.088;11.642;2022-07-31T05:18:53;3.38;;;2.88;;
26977;SDS011;56314;48.088;11.642;2022-07-31T05:21:19;6.40;;;2.85;;
26977;SDS011;56314;48.088;11.642;2022-07-31T05:23:46;2.95;;;2.70;;
26977;SDS011;56314;48.088;11.642;2022-07-31T05:26:13;3.03;;;2.60;;
26977;SDS011;56314;48.088;11.642;2022-07-31T05:28:39;3.38;;;2.90;;
26977;SDS011;56314;48.088;11.642;2022-07-31T05:31:05;3.20;;;2.90;;
26977;SDS011;56314;48.088;11.642;2022-07-31T05:33:32;3.85;;;3.22;;
26977;SDS011;56314;48.088;11.642;2022-07-31T05:35:58;3.80;;;2.83;;
26977;SDS011;56314;48.088;11.642;2022-07-31T05:38:24;4.78;;;3.10;;
26977;SDS011;56314;48.088;11.642;2022-07-31T05:40:50;3.05;;;2.40;;
26977;SDS011;56314;48.088;11.642;2022-07-31T05:43:15;2.75;;;2.50;;
26977;SDS011;56314;48.088;11.642;2022-07-31T05:45:40;4.47;;;2.40;;
26977;SDS011;56314;48.088;11.642;2022-07-31T05:48:06;2.92;;;2.30;;
26977;SDS011;56314;48.088;11.642;2022-07-31T05:50:31;3.45;;;2.50;;
26977;SDS011;56314;48.088;11.642;2022-07-31T05:53:00;3.70;;;2.33;;
26977;SDS011;56314;48.088;11.642;2022-07-31T05:55:25;5.72;;;2.50;;
26977;SDS011;56314;48.088;11.642;2022-07-31T05:57:51;2.58;;;2.45;;
26977;SDS011;56314;48.088;11.642;2022-07-31T06:00:17;3.05;;;2.75;;
26977;SDS011;56314;48.088;11.642;2022-07-31T06:02:45;3.85;;;2.58;;
26977;SDS011;56314;48.088;11.642;2022-07-31T06:05:10;4.80;;;2.10;;
26977;SDS011;56314;48.088;11.642;2022-07-31T06:07:36;7.78;;;2.70;;
26977;SDS011;56314;48.088;11.642;2022-07-31T06:10:02;5.18;;;2.45;;
26977;SDS011;56314;48.088;11.642;2022-07-31T06:12:28;4.80;;;2.58;;
26977;SDS011;56314;48.088;11.642;2022-07-31T06:14:54;2.58;;;2.38;;
26977;SDS011;56314;48.088;11.642;2022-07-31T06:17:20;2.45;;;2.28;;
26977;SDS011;56314;48.088;11.642;2022-07-31T06:19:45;6.90;;;2.97;;
26977;SDS011;56314;48.088;11.642;2022-07-31T06:22:10;4.88;;;2.90;;
26977;SDS011;56314;48.088;11.642;2022-07-31T06:24:36;3.60;;;2.85;;
26977;SDS011;56314;48.088;11.642;2022-07-31T06:27:01;2.80;;;2.60;;
26977;SDS011;56314;48.088;11.642;2022-07-31T06:29:27;5.22;;;2.70;;
26977;SDS011;56314;48.088;11.642;2022-07-31T06:31:53;6.72;;;3.25;;
26977;SDS011;56314;48.088;11.642;2022-07-31T06:34:19;9.20;;;3.40;;
26977;SDS011;56314;48.088;11.642;2022-07-31T06:36:44;3.00;;;2.80;;
26977;SDS011;56314;48.088;11.642;2022-07-31T06:39:10;4.43;;;2.95;;
26977;SDS011;56314;48.088;11.642;2022-07-31T06:41:35;5.13;;;2.90;;
26977;SDS011;56314;48.088;11.642;2022-07-31T06:44:13;3.35;;;2.80;;
26977;SDS011;56314;48.088;11.642;2022-07-31T06:46:43;2.95;;;2.60;;
26977;SDS011;56314;48.088;11.642;2022-07-31T06:49:12;4.78;;;2.92;;
26977;SDS011;56314;48.088;11.642;2022-07-31T06:51:37;4.72;;;3.00;;
26977;SDS011;56314;48.088;11.642;2022-07-31T06:54:04;5.88;;;3.22;;
26977;SDS011;56314;48.088;11.642;2022-07-31T06:56:31;6.28;;;3.25;;
26977;SDS011;56314;48.088;11.642;2022-07-31T06:58:57;3.45;;;3.15;;
26977;SDS011;56314;48.088;11.642;2022-07-31T07:01:23;6.10;;;3.30;;
26977;SDS011;56314;48.088;11.642;2022-07-31T07:03:49;4.45;;;3.05;;
26977;SDS011;56314;48.088;11.642;2022-07-31T07:06:15;3.65;;;3.08;;
26977;SDS011;56314;48.088;11.642;2022-07-31T07:08:40;4.85;;;3.05;;
26977;SDS011;56314;48.088;11.642;2022-07-31T07:11:06;6.25;;;2.72;;
26977;SDS011;56314;48.088;11.642;2022-07-31T07:13:31;2.85;;;2.63;;
26977;SDS011;56314;48.088;11.642;2022-07-31T07:15:57;12.27;;;6.05;;
26977;SDS011;56314;48.088;11.642;2022-07-31T07:18:22;4.35;;;3.35;;
26977;SDS011;56314;48.088;11.642;2022-07-31T07:20:48;4.40;;;3.13;;
26977;SDS011;56314;48.088;11.642;2022-07-31T07:23:14;3.88;;;3.00;;
26977;SDS011;56314;48.088;11.642;2022-07-31T07:25:40;4.50;;;2.88;;
26977;SDS011;56314;48.088;11.642;2022-07-31T07:28:06;3.53;;;2.85;;
26977;SDS011;56314;48.088;11.642;2022-07-31T07:30:32;4.40;;;2.97;;
26977;SDS011;56314;48.088;11.642;2022-07-31T07:32:58;4.35;;;3.00;;
26977;SDS011;56314;48.088;11.642;2022-07-31T07:35:23;6.50;;;3.20;;
26977;SDS011;56314;48.088;11.642;2022-07-31T07:37:49;4.45;;;2.80;;
26977;SDS011;56314;48.088;11.642;2022-07-31T07:40:15;2.97;;;2.78;;
26977;SDS011;56314;48.088;11.642;2022-07-31T07:42:43;4.43;;;3.33;;
26977;SDS011;56314;48.088;11.642;2022-07-31T07:45:12;3.53;;;3.00;;
26977;SDS011;56314;48.088;11.642;2022-07-31T07:47:38;3.05;;;2.75;;
26977;SDS011;56314;48.088;11.642;2022-07-31T07:50:07;3.97;;;3.17;;
26977;SDS011;56314;48.088;11.642;2022-07-31T07:52:33;2.78;;;2.58;;
26977;SDS011;56314;48.088;11.642;2022-07-31T07:55:00;3.55;;;2.55;;
26977;SDS011;56314;48.088;11.642;2022-07-31T07:57:25;3.03;;;2.42;;
26977;SDS011;56314;48.088;11.642;2022-07-31T07:59:51;3.25;;;2.80;;
26977;SDS011;56314;48.088;11.642;2022-07-31T08:02:17;3.15;;;2.85;;
26977;SDS011;56314;48.088;11.642;2022-07-31T08:04:43;3.00;;;2.70;;
26977;SDS011;56314;48.088;11.642;2022-07-31T08:07:08;6.68;;;2.80;;
26977;SDS011;56314;48.088;11.642;2022-07-31T08:09:34;3.72;;;2.88;;
26977;SDS011;56314;48.088;11.642;2022-07-31T08:12:00;3.10;;;2.80;;
26977;SDS011;56314;48.088;11.642;2022-07-31T08:14:26;2.97;;;2.75;;
26977;SDS011;56314;48.088;11.642;2022-07-31T08:16:52;5.60;;;2.85;;
26977;SDS011;56314;48.088;11.642;2022-07-31T08:19:18;3.95;;;2.88;;
26977;SDS011;56314;48.088;11.642;2022-07-31T08:21:44;3.55;;;2.80;;
26977;SDS011;56314;48.088;11.642;2022-07-31T08:24:09;4.05;;;2.88;;
26977;SDS011;56314;48.088;11.642;2022-07-31T08:26:37;2.63;;;2.50;;
26977;SDS011;56314;48.088;11.642;2022-07-31T08:29:22;4.28;;;2.70;;
26977;SDS011;56314;48.088;11.642;2022-07-31T08:31:48;3.78;;;2.75;;
26977;SDS011;56314;48.088;11.642;2022-07-31T08:34:15;4.82;;;2.67;;
26977;SDS011;56314;48.088;11.642;2022-07-31T08:36:41;3.08;;;2.70;;
26977;SDS011;56314;48.088;11.642;2022-07-31T08:39:07;4.65;;;2.97;;
26977;SDS011;56314;48.088;11.642;2022-07-31T08:41:32;3.10;;;2.70;;
26977;SDS011;56314;48.088;11.642;2022-07-31T08:43:59;4.10;;;2.15;;
26977;SDS011;56314;48.088;11.642;2022-07-31T08:46:24;3.13;;;2.20;;
26977;SDS011;56314;48.088;11.642;2022-07-31T08:48:52;3.28;;;2.22;;
26977;SDS011;56314;48.088;11.642;2022-07-31T08:51:21;4.57;;;2.50;;
26977;SDS011;56314;48.088;11.642;2022-07-31T08:53:49;3.15;;;2.35;;
26977;SDS011;56314;48.088;11.642;2022-07-31T08:56:15;2.72;;;2.10;;
26977;SDS011;56314;48.088;11.642;2022-07-31T08:58:42;4.57;;;2.63;;
26977;SDS011;56314;48.088;11.642;2022-07-31T09:01:09;4.22;;;2.40;;
26977;SDS011;56314;48.088;11.642;2022-07-31T09:03:36;3.30;;;2.67;;
26977;SDS011;56314;48.088;11.642;2022-07-31T09:06:02;2.63;;;2.20;;
26977;SDS011;56314;48.088;11.642;2022-07-31T09:08:35;3.70;;;2.03;;
26977;SDS011;56314;48.088;11.642;2022-07-31T09:11:06;2.38;;;2.17;;
26977;SDS011;56314;48.088;11.642;2022-07-31T09:13:32;3.47;;;2.10;;
26977;SDS011;56314;48.088;11.642;2022-07-31T09:15:59;4.10;;;2.33;;
26977;SDS011;56314;48.088;11.642;2022-07-31T09:18:25;4.43;;;1.77;;
26977;SDS011;56314;48.088;11.642;2022-07-31T09:20:57;2.35;;;2.15;;
26977;SDS011;56314;48.088;11.642;2022-07-31T09:23:25;4.90;;;2.72;;
26977;SDS011;56314;48.088;11.642;2022-07-31T09:25:59;3.63;;;2.50;;
26977;SDS011;56314;48.088;11.642;2022-07-31T09:30:58;2.45;;;2.25;;
26977;SDS011;56314;48.088;11.642;2022-07-31T09:33:25;3.60;;;2.00;;
26977;SDS011;56314;48.088;11.642;2022-07-31T09:35:52;3.70;;;2.20;;
26977;SDS011;56314;48.088;11.642;2022-07-31T09:38:19;4.85;;;2.50;;
26977;SDS011;56314;48.088;11.642;2022-07-31T09:40:44;5.43;;;2.10;;
26977;SDS011;56314;48.088;11.642;2022-07-31T09:43:28;2.25;;;1.90;;
26977;SDS011;56314;48.088;11.642;2022-07-31T09:45:58;4.45;;;1.90;;
26977;SDS011;56314;48.088;11.642;2022-07-31T09:48:24;2.15;;;1.65;;
26977;SDS011;56314;48.088;11.642;2022-07-31T09:50:53;4.82;;;2.03;;
26977;SDS011;56314;48.088;11.642;2022-07-31T09:53:20;2.92;;;1.70;;
26977;SDS011;56314;48.088;11.642;2022-07-31T09:55:49;6.45;;;5.85;;
26977;SDS011;56314;48.088;11.642;2022-07-31T09:58:19;4.03;;;2.20;;
26977;SDS011;56314;48.088;11.642;2022-07-31T10:00:46;1.83;;;1.55;;
26977;SDS011;56314;48.088;11.642;2022-07-31T10:03:13;3.47;;;2.10;;
26977;SDS011;56314;48.088;11.642;2022-07-31T10:05:43;2.25;;;2.05;;
26977;SDS011;56314;48.088;11.642;2022-07-31T10:08:09;2.60;;;1.98;;
26977;SDS011;56314;48.088;11.642;2022-07-31T10:10:37;3.97;;;2.13;;
26977;SDS011;56314;48.088;11.642;2022-07-31T10:13:05;2.47;;;1.80;;
26977;SDS011;56314;48.088;11.642;2022-07-31T10:15:33;3.65;;;1.80;;
26977;SDS011;56314;48.088;11.642;2022-07-31T10:18:00;4.68;;;2.03;;
26977;SDS011;56314;48.088;11.642;2022-07-31T10:20:27;2.88;;;2.20;;
26977;SDS011;56314;48.088;11.642;2022-07-31T10:22:55;2.35;;;2.15;;
26977;SDS011;56314;48.088;11.642;2022-07-31T10:25:44;3.53;;;2.00;;
26977;SDS011;56314;48.088;11.642;2022-07-31T10:28:11;2.63;;;1.85;;
26977;SDS011;56314;48.088;11.642;2022-07-31T10:30:38;4.32;;;2.03;;
26977;SDS011;56314;48.088;11.642;2022-07-31T10:33:03;4.55;;;2.38;;
26977;SDS011;56314;48.088;11.642;2022-07-31T10:35:30;2.85;;;2.30;;
26977;SDS011;56314;48.088;11.642;2022-07-31T10:40:42;5.85;;;2.05;;
26977;SDS011;56314;48.088;11.642;2022-07-31T10:43:17;2.60;;;2.00;;
26977;SDS011;56314;48.088;11.642;2022-07-31T10:45:53;3.47;;;2.20;;
26977;SDS011;56314;48.088;11.642;2022-07-31T10:48:20;1.90;;;1.70;;
26977;SDS011;56314;48.088;11.642;2022-07-31T10:50:47;2.05;;;1.80;;
26977;SDS011;56314;48.088;11.642;2022-07-31T10:53:24;12.55;;;2.42;;
26977;SDS011;56314;48.088;11.642;2022-07-31T10:55:58;5.90;;;2.33;;
26977;SDS011;56314;48.088;11.642;2022-07-31T10:58:27;2.85;;;1.63;;
26977;SDS011;56314;48.088;11.642;2022-07-31T11:01:06;4.72;;;1.83;;
26977;SDS011;56314;48.088;11.642;2022-07-31T11:03:37;3.03;;;1.75;;
26977;SDS011;56314;48.088;11.642;2022-07-31T11:06:11;2.13;;;1.80;;
26977;SDS011;56314;48.088;11.642;2022-07-31T11:11:06;4.03;;;1.80;;
26977;SDS011;56314;48.088;11.642;2022-07-31T11:13:32;6.35;;;1.90;;
26977;SDS011;56314;48.088;11.642;2022-07-31T11:16:09;4.22;;;1.90;;
26977;SDS011;56314;48.088;11.642;2022-07-31T11:18:34;1.98;;;1.52;;
26977;SDS011;56314;48.088;11.642;2022-07-31T11:21:01;1.67;;;1.58;;
26977;SDS011;56314;48.088;11.642;2022-07-31T11:23:29;2.20;;;2.00;;
26977;SDS011;56314;48.088;11.642;2022-07-31T11:25:59;5.60;;;2.10;;
26977;SDS011;56314;48.088;11.642;2022-07-31T11:28:26;2.72;;;1.98;;
26977;SDS011;56314;48.088;11.642;2022-07-31T11:30:53;2.30;;;2.10;;
26977;SDS011;56314;48.088;11.642;2022-07-31T11:38:38;2.10;;;1.90;;
26977;SDS011;56314;48.088;11.642;2022-07-31T11:41:06;4.28;;;2.00;;
26977;SDS011;56314;48.088;11.642;2022-07-31T11:43:32;2.10;;;1.90;;
26977;SDS011;56314;48.088;11.642;2022-07-31T11:45:58;2.03;;;1.77;;
26977;SDS011;56314;48.088;11.642;2022-07-31T11:48:25;2.00;;;1.80;;
26977;SDS011;56314;48.088;11.642;2022-07-31T11:50:51;2.67;;;2.17;;
26977;SDS011;56314;48.088;11.642;2022-07-31T11:53:17;3.97;;;1.98;;
26977;SDS011;56314;48.088;11.642;2022-07-31T11:55:57;2.50;;;2.10;;
26977;SDS011;56314;48.088;11.642;2022-07-31T11:58:25;2.65;;;1.90;;
26977;SDS011;56314;48.088;11.642;2022-07-31T12:00:53;1.85;;;1.70;;
26977;SDS011;56314;48.088;11.642;2022-07-31T12:03:29;2.65;;;1.77;;
26977;SDS011;56314;48.088;11.642;2022-07-31T12:05:57;3.67;;;1.70;;
26977;SDS011;56314;48.088;11.642;2022-07-31T12:08:23;1.88;;;1.65;;
26977;SDS011;56314;48.088;11.642;2022-07-31T12:10:51;3.67;;;1.80;;
26977;SDS011;56314;48.088;11.642;2022-07-31T12:13:18;1.70;;;1.60;;
26977;SDS011;56314;48.088;11.642;2022-07-31T12:18:52;2.80;;;2.00;;
26977;SDS011;56314;48.088;11.642;2022-07-31T12:21:23;1.88;;;1.70;;
26977;SDS011;56314;48.088;11.642;2022-07-31T12:23:54;5.55;;;1.70;;
26977;SDS011;56314;48.088;11.642;2022-07-31T12:28:56;2.05;;;1.88;;
26977;SDS011;56314;48.088;11.642;2022-07-31T12:34:30;1.70;;;1.60;;
26977;SDS011;56314;48.088;11.642;2022-07-31T12:37:05;3.45;;;2.17;;
26977;SDS011;56314;48.088;11.642;2022-07-31T12:39:37;3.25;;;1.92;;
26977;SDS011;56314;48.088;11.642;2022-07-31T12:42:03;2.00;;;1.90;;
26977;SDS011;56314;48.088;11.642;2022-07-31T12:44:30;4.95;;;1.80;;
26977;SDS011;56314;48.088;11.642;2022-07-31T12:46:55;3.50;;;2.10;;
26977;SDS011;56314;48.088;11.642;2022-07-31T12:49:20;2.22;;;2.03;;
26977;SDS011;56314;48.088;11.642;2022-07-31T12:51:46;3.38;;;1.88;;
26977;SDS011;56314;48.088;11.642;2022-07-31T12:54:12;3.63;;;2.20;;
26977;SDS011;56314;48.088;11.642;2022-07-31T12:56:39;2.65;;;2.20;;
26977;SDS011;56314;48.088;11.642;2022-07-31T12:59:06;2.78;;;1.88;;
26977;SDS011;56314;48.088;11.642;2022-07-31T13:01:32;5.80;;;1.92;;
26977;SDS011;56314;48.088;11.642;2022-07-31T13:03:58;1.70;;;1.60;;
26977;SDS011;56314;48.088;11.642;2022-07-31T13:06:27;1.83;;;1.67;;
26977;SDS011;56314;48.088;11.642;2022-07-31T13:08:54;1.88;;;1.77;;
26977;SDS011;56314;48.088;11.642;2022-07-31T13:11:20;3.92;;;2.30;;
26977;SDS011;56314;48.088;11.642;2022-07-31T13:13:45;4.47;;;1.83;;
26977;SDS011;56314;48.088;11.642;2022-07-31T13:16:11;1.73;;;1.63;;
26977;SDS011;56314;48.088;11.642;2022-07-31T13:18:36;2.83;;;1.65;;
26977;SDS011;56314;48.088;11.642;2022-07-31T13:21:02;1.73;;;1.63;;
26977;SDS011;56314;48.088;11.642;2022-07-31T13:23:28;3.30;;;2.10;;
26977;SDS011;56314;48.088;11.642;2022-07-31T13:25:54;1.67;;;1.48;;
26977;SDS011;56314;48.088;11.642;2022-07-31T13:28:20;3.65;;;1.73;;
26977;SDS011;56314;48.088;11.642;2022-07-31T13:30:46;2.50;;;2.08;;
26977;SDS011;56314;48.088;11.642;2022-07-31T13:33:11;1.88;;;1.60;;
26977;SDS011;56314;48.088;11.642;2022-07-31T13:35:36;1.73;;;1.63;;
26977;SDS011;56314;48.088;11.642;2022-07-31T13:38:02;3.35;;;1.90;;
26977;SDS011;56314;48.088;11.642;2022-07-31T13:40:27;3.75;;;1.92;;
26977;SDS011;56314;48.088;11.642;2022-07-31T13:45:37;2.05;;;1.80;;
26977;SDS011;56314;48.088;11.642;2022-07-31T13:48:03;3.38;;;1.40;;
26977;SDS011;56314;48.088;11.642;2022-07-31T13:50:29;3.10;;;1.40;;
26977;SDS011;56314;48.088;11.642;2022-07-31T13:52:54;2.28;;;1.70;;
26977;SDS011;56314;48.088;11.642;2022-07-31T13:55:21;2.05;;;1.60;;
26977;SDS011;56314;48.088;11.642;2022-07-31T13:57:47;3.47;;;1.65;;
26977;SDS011;56314;48.088;11.642;2022-07-31T14:00:13;2.25;;;1.90;;
26977;SDS011;56314;48.088;11.642;2022-07-31T14:02:39;3.35;;;1.70;;
26977;SDS011;56314;48.088;11.642;2022-07-31T14:05:08;3.58;;;1.52;;
26977;SDS011;56314;48.088;11.642;2022-07-31T14:07:34;2.33;;;1.38;;
26977;SDS011;56314;48.088;11.642;2022-07-31T14:10:00;1.63;;;1.40;;
26977;SDS011;56314;48.088;11.642;2022-07-31T14:12:26;2.33;;;2.08;;
26977;SDS011;56314;48.088;11.642;2022-07-31T14:14:51;1.60;;;1.50;;
26977;SDS011;56314;48.088;11.642;2022-07-31T14:17:16;2.80;;;1.50;;
26977;SDS011;56314;48.088;11.642;2022-07-31T14:19:42;1.50;;;1.40;;
26977;SDS011;56314;48.088;11.642;2022-07-31T14:22:08;1.80;;;1.70;;
26977;SDS011;56314;48.088;11.642;2022-07-31T14:24:34;3.03;;;1.65;;
26977;SDS011;56314;48.088;11.642;2022-07-31T14:27:01;2.33;;;1.80;;
26977;SDS011;56314;48.088;11.642;2022-07-31T14:29:27;1.50;;;1.40;;
26977;SDS011;56314;48.088;11.642;2022-07-31T14:31:52;1.60;;;1.50;;
26977;SDS011;56314;48.088;11.642;2022-07-31T14:34:18;1.73;;;1.63;;
26977;SDS011;56314;48.088;11.642;2022-07-31T14:36:43;3.65;;;1.70;;
26977;SDS011;56314;48.088;11.642;2022-07-31T14:39:08;4.03;;;1.70;;
26977;SDS011;56314;48.088;11.642;2022-07-31T14:41:33;1.50;;;1.40;;
26977;SDS011;56314;48.088;11.642;2022-07-31T14:43:59;3.85;;;1.70;;
26977;SDS011;56314;48.088;11.642;2022-07-31T14:46:24;2.97;;;1.90;;
26977;SDS011;56314;48.088;11.642;2022-07-31T14:48:50;3.70;;;1.70;;
26977;SDS011;56314;48.088;11.642;2022-07-31T14:51:15;2.03;;;1.83;;
26977;SDS011;56314;48.088;11.642;2022-07-31T14:53:42;2.22;;;2.05;;
26977;SDS011;56314;48.088;11.642;2022-07-31T14:56:07;1.83;;;1.73;;
26977;SDS011;56314;48.088;11.642;2022-07-31T14:58:32;1.98;;;1.83;;
26977;SDS011;56314;48.088;11.642;2022-07-31T15:00:58;2.35;;;1.80;;
26977;SDS011;56314;48.088;11.642;2022-07-31T15:03:23;2.17;;;1.98;;